createdAt,value
2023-05-12T00:00:37.963Z,222.54
2023-05-12T00:01:37.987Z,215.01
2023-05-12T00:02:38.119Z,222.35
2023-05-12T00:03:38.156Z,211.27
2023-05-12T00:04:38.184Z,210.12
2023-05-12T00:05:38.149Z,222.98
2023-05-12T00:06:38.176Z,209.87
2023-05-12T00:07:38.187Z,216.28
2023-05-12T00:08:38.248Z,216.67
2023-05-12T00:09:38.293Z,213.96
2023-05-12T00:10:38.323Z,214.43
2023-05-12T00:11:38.310Z,224.02
2023-05-12T00:12:38.341Z,217.19
2023-05-12T00:13:38.447Z,218.47
2023-05-12T00:14:38.405Z,216.89
2023-05-12T00:15:38.450Z,221.70
2023-05-12T00:16:38.511Z,216.63
2023-05-12T00:17:38.544Z,222.25
2023-05-12T00:18:38.609Z,206.12
2023-05-12T00:19:38.566Z,212.99
2023-05-12T00:20:38.532Z,213.21
2023-05-12T00:21:38.509Z,214.12
2023-05-12T00:22:38.480Z,216.48
2023-05-12T00:23:38.454Z,214.47
2023-05-12T00:24:38.438Z,216.04
2023-05-12T00:25:38.419Z,214.07
2023-05-12T00:26:38.395Z,212.46
2023-05-12T00:27:38.353Z,221.80
2023-05-12T00:28:38.380Z,217.74
2023-05-12T00:29:38.419Z,216.67
2023-05-12T00:30:38.471Z,214.43
2023-05-12T00:31:38.541Z,213.67
2023-05-12T00:32:38.571Z,213.08
2023-05-12T00:33:38.554Z,211.07
2023-05-12T00:34:38.596Z,211.78
2023-05-12T00:35:38.632Z,215.95
2023-05-12T00:36:38.647Z,209.20
2023-05-12T00:37:38.619Z,209.50
2023-05-12T00:38:38.611Z,209.51
2023-05-12T00:39:38.564Z,211.74
2023-05-12T00:40:38.536Z,212.23
2023-05-12T00:41:38.509Z,211.10
2023-05-12T00:42:38.478Z,214.75
2023-05-12T00:43:38.465Z,215.93
2023-05-12T00:44:38.425Z,218.04
2023-05-12T00:45:38.508Z,215.18
2023-05-12T00:46:38.488Z,210.78
2023-05-12T00:47:38.641Z,214.49
2023-05-12T00:48:38.577Z,218.45
2023-05-12T00:49:38.589Z,211.63
2023-05-12T00:50:38.631Z,209.34
2023-05-12T00:51:38.670Z,212.19
2023-05-12T00:52:38.702Z,210.77
2023-05-12T00:53:49.349Z,209.36
2023-05-12T00:54:38.726Z,209.90
2023-05-12T00:55:38.707Z,210.23
2023-05-12T00:56:38.666Z,213.81
2023-05-12T00:57:38.638Z,210.30
2023-05-12T00:58:38.661Z,207.22
2023-05-12T00:59:38.607Z,219.37
2023-05-12T01:00:38.584Z,214.07
2023-05-12T01:01:38.578Z,210.96
2023-05-12T01:02:38.624Z,214.85
2023-05-12T01:03:38.605Z,219.43
2023-05-12T01:04:38.544Z,218.33
2023-05-12T01:05:38.570Z,210.04
2023-05-12T01:06:38.590Z,206.24
2023-05-12T01:07:38.632Z,213.39
2023-05-12T01:08:38.693Z,210.84
2023-05-12T01:09:38.676Z,214.04
2023-05-12T01:10:38.713Z,214.37
2023-05-12T01:11:38.732Z,208.72
2023-05-12T01:12:38.779Z,217.96
2023-05-12T01:13:38.809Z,210.68
2023-05-12T01:14:38.851Z,208.77
2023-05-12T01:15:38.826Z,209.03
2023-05-12T01:16:38.807Z,207.10
2023-05-12T01:17:39.012Z,211.90
2023-05-12T01:18:38.815Z,207.59
2023-05-12T01:19:38.713Z,218.19
2023-05-12T01:20:38.741Z,208.73
2023-05-12T01:21:38.670Z,211.29
2023-05-12T01:22:38.653Z,209.72
2023-05-12T01:23:38.611Z,218.09
2023-05-12T01:24:38.576Z,208.05
2023-05-12T01:25:38.563Z,205.81
2023-05-12T01:26:38.555Z,216.24
2023-05-12T01:27:38.528Z,216.87
2023-05-12T01:28:38.580Z,217.58
2023-05-12T01:29:38.613Z,210.18
2023-05-12T01:30:38.584Z,210.00
2023-05-12T01:31:38.710Z,205.08
2023-05-12T01:32:38.658Z,208.34
2023-05-12T01:33:38.647Z,204.55
2023-05-12T01:34:38.605Z,215.27
2023-05-12T01:35:38.619Z,213.94
2023-05-12T01:36:38.654Z,210.66
2023-05-12T01:37:38.683Z,207.91
2023-05-12T01:38:38.689Z,215.66
2023-05-12T01:39:38.693Z,204.96
2023-05-12T01:40:38.683Z,208.14
2023-05-12T01:41:38.706Z,212.80
2023-05-12T01:42:38.780Z,213.52
2023-05-12T01:43:38.703Z,216.08
2023-05-12T01:44:38.676Z,203.36
2023-05-12T01:45:38.678Z,209.45
2023-05-12T01:46:38.741Z,209.80
2023-05-12T01:47:38.736Z,209.74
2023-05-12T01:48:38.677Z,211.96
2023-05-12T01:49:38.640Z,211.08
2023-05-12T01:50:38.641Z,205.30
2023-05-12T01:51:38.666Z,209.12
2023-05-12T01:52:38.616Z,208.19
2023-05-12T01:53:38.626Z,208.54
2023-05-12T01:54:38.624Z,215.14
2023-05-12T01:55:38.596Z,207.26
2023-05-12T01:56:38.585Z,206.80
2023-05-12T01:57:38.581Z,212.06
2023-05-12T01:58:38.587Z,212.47
2023-05-12T01:59:38.543Z,213.04
2023-05-12T02:00:38.527Z,205.19
2023-05-12T02:01:38.543Z,211.78
2023-05-12T02:02:39.328Z,213.85
2023-05-12T02:03:38.594Z,211.07
2023-05-12T02:04:38.501Z,212.22
2023-05-12T02:05:38.506Z,213.00
2023-05-12T02:06:38.504Z,208.92
2023-05-12T02:07:38.492Z,213.85
2023-05-12T02:08:38.472Z,213.94
2023-05-12T02:09:38.414Z,214.59
2023-05-12T02:10:38.392Z,210.83
2023-05-12T02:11:38.358Z,213.52
2023-05-12T02:12:38.330Z,208.24
2023-05-12T02:13:38.299Z,209.93
2023-05-12T02:14:38.300Z,204.11
2023-05-12T02:15:38.253Z,209.52
2023-05-12T02:16:38.259Z,206.18
2023-05-12T02:17:38.197Z,207.83
2023-05-12T02:18:38.182Z,204.66
2023-05-12T02:19:38.131Z,203.31
2023-05-12T02:20:38.091Z,211.37
2023-05-12T02:21:38.074Z,208.20
2023-05-12T02:22:38.031Z,208.95
2023-05-12T02:23:38.034Z,208.35
2023-05-12T02:24:38.008Z,212.07
2023-05-12T02:25:37.953Z,212.10
2023-05-12T02:26:37.930Z,201.33
2023-05-12T02:27:37.881Z,207.73
2023-05-12T02:28:37.860Z,198.24
2023-05-12T02:29:37.827Z,205.85
2023-05-12T02:30:37.803Z,205.78
2023-05-12T02:31:37.791Z,204.36
2023-05-12T02:32:37.816Z,208.33
2023-05-12T02:33:37.759Z,202.50
2023-05-12T02:34:37.734Z,208.59
2023-05-12T02:35:37.735Z,210.97
2023-05-12T02:36:37.747Z,208.04
2023-05-12T02:37:37.753Z,207.19
2023-05-12T02:38:37.751Z,202.47
2023-05-12T02:39:37.734Z,208.64
2023-05-12T02:40:37.715Z,216.68
2023-05-12T02:41:37.696Z,202.80
2023-05-12T02:42:37.691Z,208.21
2023-05-12T02:43:37.664Z,208.08
2023-05-12T02:44:37.654Z,205.00
2023-05-12T02:45:37.670Z,207.30
2023-05-12T02:46:37.593Z,209.06
2023-05-12T02:47:37.703Z,210.84
2023-05-12T02:48:37.548Z,207.91
2023-05-12T02:49:37.512Z,203.28
2023-05-12T02:50:37.495Z,196.84
2023-05-12T02:51:37.483Z,191.16
2023-05-12T02:52:37.465Z,180.09
2023-05-12T02:53:37.438Z,165.72
2023-05-12T02:54:37.429Z,159.30
2023-05-12T02:55:37.419Z,161.37
2023-05-12T02:56:37.417Z,153.33
2023-05-12T02:57:37.399Z,147.58
2023-05-12T02:58:37.401Z,136.37
2023-05-12T02:59:37.390Z,126.84
2023-05-12T03:00:37.403Z,122.41
2023-05-12T03:01:37.410Z,112.99
2023-05-12T03:02:37.447Z,113.62
2023-05-12T03:03:37.562Z,104.03
2023-05-12T03:04:37.418Z,91.92
2023-05-12T03:05:37.409Z,92.11
2023-05-12T03:06:37.418Z,86.09
2023-05-12T03:07:37.430Z,81.18
2023-05-12T03:08:37.452Z,77.95
2023-05-12T03:09:37.474Z,71.26
2023-05-12T03:10:37.502Z,65.66
2023-05-12T03:11:37.538Z,63.05
2023-05-12T03:12:37.548Z,55.31
2023-05-12T03:13:37.572Z,52.91
2023-05-12T03:14:37.590Z,47.75
2023-05-12T03:15:37.614Z,43.07
2023-05-12T03:16:37.719Z,37.69
2023-05-12T03:17:37.696Z,36.15
2023-05-12T03:18:37.721Z,31.66
2023-05-12T03:19:37.741Z,25.04
2023-05-12T03:20:37.787Z,27.00
2023-05-12T03:21:37.823Z,25.00
2023-05-12T03:22:37.872Z,26.30
2023-05-12T03:23:37.896Z,26.05
2023-05-12T03:24:37.946Z,25.42
2023-05-12T03:25:37.979Z,26.41
2023-05-12T03:26:38.044Z,25.88
2023-05-12T03:27:38.047Z,26.50
2023-05-12T03:28:38.108Z,27.11
2023-05-12T03:29:38.149Z,27.28
2023-05-12T03:30:38.219Z,25.00
2023-05-12T03:31:38.290Z,27.81
2023-05-12T03:32:38.330Z,26.69
2023-05-12T03:33:38.327Z,29.17
2023-05-12T03:34:38.391Z,27.28
2023-05-12T03:35:38.435Z,25.00
2023-05-12T03:36:38.464Z,25.00
2023-05-12T03:37:38.591Z,28.99
2023-05-12T03:38:38.617Z,26.91
2023-05-12T03:39:38.602Z,26.97
2023-05-12T03:40:38.521Z,27.32
2023-05-12T03:41:38.500Z,27.04
2023-05-12T03:42:38.478Z,25.26
2023-05-12T03:43:38.446Z,21.17
2023-05-12T03:44:38.437Z,25.98
2023-05-12T03:45:38.416Z,26.48
2023-05-12T03:46:38.532Z,26.56
2023-05-12T03:47:38.455Z,25.14
2023-05-12T03:48:38.344Z,22.50
2023-05-12T03:49:38.323Z,22.36
2023-05-12T03:50:38.310Z,19.38
2023-05-12T03:51:38.316Z,25.83
2023-05-12T03:52:38.293Z,25.30
2023-05-12T03:53:38.231Z,25.20
2023-05-12T03:54:38.233Z,25.46
2023-05-12T03:55:38.204Z,25.07
2023-05-12T03:56:38.202Z,27.81
2023-05-12T03:57:38.171Z,26.93
2023-05-12T03:58:38.127Z,27.39
2023-05-12T03:59:38.147Z,27.37
2023-05-12T04:00:39.030Z,26.10
2023-05-12T04:01:38.220Z,28.31
2023-05-12T04:02:38.278Z,28.37
2023-05-12T04:03:38.157Z,28.40
2023-05-12T04:04:38.099Z,28.51
2023-05-12T04:05:38.110Z,26.43
2023-05-12T04:06:38.093Z,27.46
2023-05-12T04:07:38.045Z,26.19
2023-05-12T04:08:40.327Z,27.25
2023-05-12T04:09:38.021Z,25.02
2023-05-12T04:10:37.985Z,25.00
2023-05-12T04:11:37.981Z,26.34
2023-05-12T04:12:37.938Z,25.50
2023-05-12T04:13:37.941Z,25.63
2023-05-12T04:14:42.928Z,26.01
2023-05-12T04:15:38.876Z,25.63
2023-05-12T04:16:37.892Z,25.53
2023-05-12T04:17:37.880Z,23.11
2023-05-12T04:18:37.842Z,25.82
2023-05-12T04:19:37.815Z,22.17
2023-05-12T04:20:37.802Z,26.53
2023-05-12T04:21:37.795Z,26.51
2023-05-12T04:22:37.816Z,26.19
2023-05-12T04:23:37.767Z,27.56
2023-05-12T04:24:37.740Z,25.00
2023-05-12T04:25:37.721Z,26.65
2023-05-12T04:26:37.696Z,26.29
2023-05-12T04:27:37.667Z,27.10
2023-05-12T04:28:37.638Z,25.20
2023-05-12T04:29:37.651Z,26.20
2023-05-12T04:30:37.695Z,27.04
2023-05-12T04:31:37.749Z,28.31
2023-05-12T04:32:37.849Z,26.65
2023-05-12T04:33:37.772Z,26.38
2023-05-12T04:34:37.805Z,27.72
2023-05-12T04:35:37.812Z,29.86
2023-05-12T04:36:37.800Z,27.69
2023-05-12T04:37:37.854Z,26.50
2023-05-12T04:38:37.838Z,28.14
2023-05-12T04:39:37.867Z,27.08
2023-05-12T04:40:37.846Z,25.97
2023-05-12T04:41:37.837Z,28.97
2023-05-12T04:42:37.858Z,29.51
2023-05-12T04:44:37.922Z,27.77
2023-05-12T04:45:37.902Z,26.94
2023-05-12T04:46:37.901Z,29.51
2023-05-12T04:47:37.905Z,27.45
2023-05-12T04:48:37.873Z,27.16
2023-05-12T04:49:37.855Z,27.41
2023-05-12T04:50:37.839Z,27.98
2023-05-12T04:51:37.841Z,27.26
2023-05-12T04:52:37.829Z,29.94
2023-05-12T04:53:37.830Z,28.94
2023-05-12T04:54:37.802Z,28.49
2023-05-12T04:55:37.778Z,28.13
2023-05-12T04:56:37.775Z,25.38
2023-05-12T04:57:37.764Z,29.03
2023-05-12T04:58:37.742Z,26.17
2023-05-12T04:59:38.834Z,28.05
2023-05-12T05:00:37.738Z,28.19
2023-05-12T05:01:37.760Z,28.70
2023-05-12T05:02:37.778Z,28.35
2023-05-12T05:03:37.815Z,29.30
2023-05-12T05:04:37.705Z,28.99
2023-05-12T05:05:37.706Z,28.81
2023-05-12T05:06:37.711Z,29.58
2023-05-12T05:07:37.684Z,28.47
2023-05-12T05:08:37.705Z,29.08
2023-05-12T05:09:37.675Z,29.18
2023-05-12T05:10:37.649Z,29.19
2023-05-12T05:11:37.665Z,26.92
2023-05-12T05:12:37.686Z,29.20
2023-05-12T05:13:37.676Z,28.82
2023-05-12T05:14:37.635Z,29.65
2023-05-12T05:15:37.697Z,27.60
2023-05-12T05:16:37.642Z,27.76
2023-05-12T05:17:37.667Z,27.75
2023-05-12T05:18:37.760Z,26.47
2023-05-12T05:19:49.289Z,28.73
2023-05-12T05:20:40.770Z,28.92
2023-05-12T05:21:37.611Z,28.97
2023-05-12T05:22:37.606Z,29.22
2023-05-12T05:23:37.595Z,30.63
2023-05-12T05:24:37.602Z,31.61
2023-05-12T05:25:37.595Z,34.02
2023-05-12T05:26:37.563Z,36.15
2023-05-12T05:27:37.723Z,35.85
2023-05-12T05:28:38.296Z,37.34
2023-05-12T05:29:37.634Z,34.10
2023-05-12T05:30:37.661Z,38.99
2023-05-12T05:31:37.871Z,42.50
2023-05-12T05:32:37.825Z,45.17
2023-05-12T05:33:37.716Z,46.44
2023-05-12T05:34:37.879Z,42.22
2023-05-12T05:35:37.780Z,31.18
2023-05-12T05:36:37.790Z,26.41
2023-05-12T05:37:37.789Z,25.41
2023-05-12T05:38:37.781Z,26.69
2023-05-12T05:39:37.841Z,25.00
2023-05-12T05:40:51.601Z,26.32
2023-05-12T05:41:38.786Z,25.51
2023-05-12T05:42:37.860Z,21.80
2023-05-12T05:43:37.815Z,21.35
2023-05-12T05:44:37.810Z,17.27
2023-05-12T05:45:37.888Z,18.85
2023-05-12T05:46:37.837Z,30.41
2023-05-12T05:47:38.602Z,28.46
2023-05-12T05:48:37.754Z,34.36
2023-05-12T05:49:37.904Z,35.23
2023-05-12T05:50:37.735Z,44.79
2023-05-12T05:51:37.742Z,50.45
2023-05-12T05:52:37.892Z,59.52
2023-05-12T05:53:37.710Z,65.98
2023-05-12T05:54:37.758Z,73.68
2023-05-12T05:55:37.698Z,82.83
2023-05-12T05:56:37.850Z,83.18
2023-05-12T05:57:37.711Z,85.17
2023-05-12T05:58:37.669Z,90.59
2023-05-12T05:59:37.731Z,101.97
2023-05-12T06:00:37.662Z,118.48
2023-05-12T06:01:37.718Z,127.02
2023-05-12T06:02:37.798Z,129.69
2023-05-12T06:03:37.671Z,137.73
2023-05-12T06:04:37.651Z,143.82
2023-05-12T06:05:37.722Z,151.57
2023-05-12T06:06:37.783Z,154.83
2023-05-12T06:07:37.667Z,162.28
2023-05-12T06:08:37.712Z,168.52
2023-05-12T06:09:37.675Z,168.79
2023-05-12T06:10:37.689Z,170.72
2023-05-12T06:11:37.637Z,174.73
2023-05-12T06:12:37.631Z,181.76
2023-05-12T06:13:37.725Z,194.84
2023-05-12T06:14:37.917Z,201.77
2023-05-12T06:15:37.626Z,208.20
2023-05-12T06:16:37.599Z,211.62
2023-05-12T06:17:37.621Z,216.11
2023-05-12T06:18:37.694Z,223.65
2023-05-12T06:19:37.537Z,228.32
2023-05-12T06:20:37.515Z,233.59
2023-05-12T06:21:37.489Z,240.03
2023-05-12T06:22:37.458Z,241.05
2023-05-12T06:23:37.447Z,245.37
2023-05-12T06:24:37.417Z,249.39
2023-05-12T06:25:38.184Z,242.36
2023-05-12T06:26:39.174Z,248.65
2023-05-12T06:27:37.446Z,250.00
2023-05-12T06:28:37.434Z,247.75
2023-05-12T06:29:37.349Z,250.00
2023-05-12T06:30:37.251Z,247.29
2023-05-12T06:31:37.451Z,247.67
2023-05-12T06:32:37.444Z,250.00
2023-05-12T06:33:37.378Z,246.01
2023-05-12T06:34:37.426Z,249.23
2023-05-12T06:35:37.431Z,243.24
2023-05-12T06:36:37.497Z,244.89
2023-05-12T06:37:37.549Z,246.46
2023-05-12T06:38:37.557Z,248.49
2023-05-12T06:39:37.631Z,247.35
2023-05-12T06:40:37.793Z,247.05
2023-05-12T06:41:37.676Z,248.27
2023-05-12T06:42:37.751Z,248.02
2023-05-12T06:43:37.728Z,248.21
2023-05-12T06:44:38.489Z,248.63
2023-05-12T06:45:37.649Z,250.50
2023-05-12T06:46:37.768Z,249.70
2023-05-12T06:47:37.780Z,247.04
2023-05-12T06:48:37.517Z,249.87
2023-05-12T06:49:37.526Z,248.83
2023-05-12T06:50:37.490Z,250.53
2023-05-12T06:51:37.482Z,249.88
2023-05-12T06:52:37.487Z,249.10
2023-05-12T06:53:37.578Z,247.64
2023-05-12T06:54:37.551Z,248.05
2023-05-12T06:55:37.579Z,244.43
2023-05-12T06:56:37.569Z,212.15
2023-05-12T06:57:37.806Z,177.40
2023-05-12T06:58:37.633Z,149.59
2023-05-12T06:59:37.644Z,131.65
2023-05-12T07:00:37.640Z,129.23
2023-05-12T07:01:37.745Z,126.87
2023-05-12T07:02:37.726Z,127.29
2023-05-12T07:03:37.650Z,129.89
2023-05-12T07:04:37.593Z,134.82
2023-05-12T07:05:37.720Z,134.04
2023-05-12T07:06:37.532Z,135.21
2023-05-12T07:07:37.543Z,137.21
2023-05-12T07:08:37.496Z,141.25
2023-05-12T07:09:37.452Z,148.44
2023-05-12T07:10:38.286Z,148.46
2023-05-12T07:11:37.480Z,154.84
2023-05-12T07:12:37.463Z,158.40
2023-05-12T07:13:38.204Z,162.63
2023-05-12T07:14:37.320Z,163.55
2023-05-12T07:15:37.298Z,165.05
2023-05-12T07:16:37.457Z,166.79
2023-05-12T07:17:37.373Z,170.78
2023-05-12T07:18:37.272Z,171.82
2023-05-12T07:19:37.360Z,174.79
2023-05-12T07:20:37.256Z,177.66
2023-05-12T07:21:37.451Z,181.87
2023-05-12T07:22:38.793Z,182.39
2023-05-12T07:23:37.434Z,187.59
2023-05-12T07:24:37.285Z,188.25
2023-05-12T07:25:37.349Z,191.30
2023-05-12T07:26:37.313Z,192.99
2023-05-12T07:27:37.373Z,194.09
2023-05-12T07:28:37.567Z,194.89
2023-05-12T07:29:37.385Z,197.05
2023-05-12T07:30:37.329Z,198.60
2023-05-12T07:31:37.409Z,200.72
2023-05-12T07:32:37.428Z,204.00
2023-05-12T07:33:38.331Z,202.15
2023-05-12T07:34:37.401Z,205.48
2023-05-12T07:35:37.349Z,204.91
2023-05-12T07:36:37.470Z,210.60
2023-05-12T07:37:37.323Z,214.05
2023-05-12T07:38:37.479Z,218.24
2023-05-12T07:39:37.326Z,217.06
2023-05-12T07:40:38.197Z,202.09
2023-05-12T07:41:37.503Z,182.15
2023-05-12T07:42:37.412Z,161.85
2023-05-12T07:43:37.303Z,142.08
2023-05-12T07:44:37.387Z,108.42
2023-05-12T07:45:37.213Z,87.77
2023-05-12T07:46:37.318Z,57.87
2023-05-12T07:47:37.197Z,25.37
2023-05-12T07:48:37.133Z,10.66
2023-05-12T07:49:37.177Z,8.85
2023-05-12T07:50:37.100Z,9.51
2023-05-12T07:51:37.048Z,16.29
2023-05-12T07:52:37.058Z,23.41
2023-05-12T07:53:37.193Z,29.58
2023-05-12T07:54:37.125Z,25.00
2023-05-12T07:55:37.171Z,24.98
2023-05-12T07:56:37.117Z,25.11
2023-05-12T07:57:37.191Z,25.00
2023-05-12T07:58:37.605Z,25.00
2023-05-12T07:59:37.607Z,25.00
2023-05-12T08:00:37.062Z,16.46
2023-05-12T08:01:37.003Z,11.62
2023-05-12T08:02:37.129Z,8.22
2023-05-12T08:03:37.216Z,11.13
2023-05-12T08:04:37.099Z,15.59
2023-05-12T08:05:37.069Z,21.22
2023-05-12T08:06:36.862Z,27.51
2023-05-12T08:07:36.848Z,27.58
2023-05-12T08:08:36.810Z,23.52
2023-05-12T08:09:37.707Z,22.23
2023-05-12T08:10:36.823Z,15.92
2023-05-12T08:11:36.722Z,18.00
2023-05-12T08:12:36.729Z,20.66
2023-05-12T08:13:36.790Z,28.23
2023-05-12T08:14:36.648Z,26.60
2023-05-12T08:15:36.654Z,26.55
2023-05-12T08:16:36.633Z,30.59
2023-05-12T08:17:36.704Z,31.87
2023-05-12T08:18:36.636Z,33.14
2023-05-12T08:19:36.711Z,34.12
2023-05-12T08:20:36.491Z,25.20
2023-05-12T08:21:36.555Z,26.73
2023-05-12T08:22:36.395Z,25.72
2023-05-12T08:23:36.395Z,48.84
2023-05-12T08:24:36.396Z,60.83
2023-05-12T08:25:36.407Z,56.08
2023-05-12T08:26:36.412Z,49.98
2023-05-12T08:27:36.346Z,49.26
2023-05-12T08:28:36.294Z,38.75
2023-05-12T08:29:36.261Z,37.61
2023-05-12T08:30:36.284Z,36.51
2023-05-12T08:31:36.233Z,38.49
2023-05-12T08:32:36.225Z,41.02
2023-05-12T08:33:36.168Z,43.52
2023-05-12T08:34:36.167Z,51.49
2023-05-12T08:35:36.100Z,57.62
2023-05-12T08:36:36.067Z,65.05
2023-05-12T08:37:36.082Z,72.55
2023-05-12T08:38:36.010Z,80.31
2023-05-12T08:39:35.948Z,87.84
2023-05-12T08:40:35.921Z,91.88
2023-05-12T08:41:35.889Z,93.74
2023-05-12T08:42:35.865Z,94.63
2023-05-12T08:43:35.835Z,99.47
2023-05-12T08:44:35.808Z,101.99
2023-05-12T08:45:35.913Z,103.48
2023-05-12T08:46:35.809Z,108.69
2023-05-12T08:47:35.748Z,109.21
2023-05-12T08:48:35.708Z,113.21
2023-05-12T08:49:35.688Z,115.92
2023-05-12T08:50:35.664Z,116.11
2023-05-12T08:51:35.585Z,119.95
2023-05-12T08:52:35.621Z,120.71
2023-05-12T08:53:35.602Z,127.23
2023-05-12T08:54:42.463Z,124.68
2023-05-12T08:55:35.590Z,124.76
2023-05-12T08:57:36.423Z,125.74
2023-05-12T08:58:41.097Z,125.11
2023-05-12T08:59:36.413Z,125.11
2023-05-12T09:00:35.467Z,126.58
2023-05-12T09:01:36.751Z,129.41
2023-05-12T09:02:51.223Z,133.02
2023-05-12T09:03:36.292Z,125.24
2023-05-12T09:04:35.288Z,127.23
2023-05-12T09:05:35.237Z,131.27
2023-05-12T09:06:35.164Z,136.76
2023-05-12T09:07:35.133Z,143.80
2023-05-12T09:08:35.266Z,145.53
2023-05-12T09:09:35.098Z,146.20
2023-05-12T09:10:35.868Z,147.99
2023-05-12T09:11:35.000Z,149.75
2023-05-12T09:12:35.033Z,149.50
2023-05-12T09:13:35.108Z,150.80
2023-05-12T09:14:35.117Z,152.24
2023-05-12T09:15:35.130Z,152.30
2023-05-12T09:16:35.236Z,152.13
2023-05-12T09:17:35.243Z,153.57
2023-05-12T09:18:35.298Z,154.57
2023-05-12T09:19:35.254Z,155.95
2023-05-12T09:20:35.299Z,156.63
2023-05-12T09:21:35.338Z,157.93
2023-05-12T09:22:35.362Z,157.83
2023-05-12T09:23:35.422Z,160.09
2023-05-12T09:24:35.421Z,161.06
2023-05-12T09:25:35.452Z,162.45
2023-05-12T09:26:35.468Z,163.61
2023-05-12T09:27:35.486Z,165.12
2023-05-12T09:28:35.517Z,164.88
2023-05-12T09:29:39.872Z,167.56
2023-05-12T09:30:36.487Z,167.61
2023-05-12T09:31:35.483Z,167.70
2023-05-12T09:32:35.472Z,168.19
2023-05-12T09:33:35.450Z,168.82
2023-05-12T09:34:35.320Z,167.81
2023-05-12T09:35:35.261Z,168.68
2023-05-12T09:36:35.270Z,170.43
2023-05-12T09:37:35.203Z,173.18
2023-05-12T09:38:35.181Z,175.85
2023-05-12T09:39:35.192Z,177.96
2023-05-12T09:40:35.076Z,177.99
2023-05-12T09:41:35.259Z,175.17
2023-05-12T09:42:35.030Z,158.80
2023-05-12T09:43:35.094Z,131.66
2023-05-12T09:44:34.972Z,108.44
2023-05-12T09:45:34.994Z,90.53
2023-05-12T09:46:34.949Z,78.24
2023-05-12T09:47:34.912Z,60.33
2023-05-12T09:48:34.911Z,57.53
2023-05-12T09:49:34.837Z,51.78
2023-05-12T09:50:44.233Z,49.12
2023-05-12T09:51:35.832Z,49.27
2023-05-12T09:52:34.815Z,50.31
2023-05-12T09:53:34.792Z,54.84
2023-05-12T09:54:34.787Z,66.56
2023-05-12T09:55:34.765Z,85.79
2023-05-12T09:56:34.741Z,96.36
2023-05-12T09:57:34.680Z,104.96
2023-05-12T09:58:34.744Z,109.29
2023-05-12T09:59:34.796Z,120.49
2023-05-12T10:00:58.578Z,131.30
2023-05-12T10:01:35.620Z,131.43
2023-05-12T10:02:34.659Z,132.09
2023-05-12T10:03:34.544Z,135.25
2023-05-12T10:04:34.625Z,141.91
2023-05-12T10:05:34.562Z,148.88
2023-05-12T10:06:34.486Z,157.33
2023-05-12T10:07:34.500Z,159.14
2023-05-12T10:08:34.446Z,157.97
2023-05-12T10:09:34.410Z,156.61
2023-05-12T10:10:34.384Z,160.27
2023-05-12T10:11:34.370Z,159.70
2023-05-12T10:12:34.585Z,160.26
2023-05-12T10:13:34.506Z,150.90
2023-05-12T10:14:34.483Z,151.67
2023-05-12T10:15:34.545Z,152.27
2023-05-12T10:16:34.623Z,152.40
2023-05-12T10:17:34.619Z,152.90
2023-05-12T10:18:34.517Z,154.48
2023-05-12T10:19:34.408Z,157.02
2023-05-12T10:20:34.412Z,163.09
2023-05-12T10:21:34.333Z,152.78
2023-05-12T10:22:34.373Z,155.32
2023-05-12T10:23:36.444Z,160.57
2023-05-12T10:24:34.254Z,169.51
2023-05-12T10:25:34.176Z,180.40
2023-05-12T10:26:34.146Z,184.41
2023-05-12T10:27:34.125Z,186.56
2023-05-12T10:28:34.092Z,191.09
2023-05-12T10:29:34.112Z,195.60
2023-05-12T10:30:34.010Z,199.95
2023-05-12T10:31:34.013Z,202.82
2023-05-12T10:32:33.963Z,205.34
2023-05-12T10:33:33.887Z,208.64
2023-05-12T10:34:33.924Z,211.41
2023-05-12T10:35:33.838Z,213.46
2023-05-12T10:36:33.809Z,215.72
2023-05-12T10:37:33.750Z,226.21
2023-05-12T10:38:33.711Z,303.56
2023-05-12T10:39:33.686Z,316.77
2023-05-12T10:40:33.667Z,301.91
2023-05-12T10:41:33.646Z,287.12
2023-05-12T10:42:33.539Z,274.71
2023-05-12T10:43:33.741Z,265.87
2023-05-12T10:44:33.548Z,256.14
2023-05-12T10:45:33.415Z,248.31
2023-05-12T10:46:33.414Z,245.08
2023-05-12T10:47:33.447Z,243.30
2023-05-12T10:48:33.363Z,240.53
2023-05-12T10:49:33.579Z,238.06
2023-05-12T10:50:33.247Z,234.29
2023-05-12T10:51:33.290Z,230.94
2023-05-12T10:52:33.222Z,228.98
2023-05-12T10:53:45.225Z,227.81
2023-05-12T10:54:34.145Z,226.68
2023-05-12T10:55:33.255Z,222.15
2023-05-12T10:56:33.219Z,219.98
2023-05-12T10:57:33.648Z,215.26
2023-05-12T10:58:33.267Z,210.78
2023-05-12T10:59:33.149Z,206.46
2023-05-12T11:00:33.159Z,203.36
2023-05-12T11:01:33.384Z,197.26
2023-05-12T11:02:34.600Z,196.07
2023-05-12T11:03:33.596Z,192.53
2023-05-12T11:04:33.035Z,191.92
2023-05-12T11:05:33.431Z,189.35
2023-05-12T11:06:32.870Z,186.98
2023-05-12T11:07:33.308Z,185.22
2023-05-12T11:08:32.789Z,181.53
2023-05-12T11:09:32.807Z,178.55
2023-05-12T11:10:33.537Z,172.34
2023-05-12T11:11:32.554Z,171.28
2023-05-12T11:12:32.844Z,169.74
2023-05-12T11:13:32.487Z,164.04
2023-05-12T11:14:32.444Z,158.15
2023-05-12T11:15:32.401Z,156.87
2023-05-12T11:16:32.407Z,157.18
2023-05-12T11:17:32.664Z,152.27
2023-05-12T11:18:32.465Z,147.30
2023-05-12T11:19:32.299Z,148.60
2023-05-12T11:20:32.265Z,144.57
2023-05-12T11:21:32.249Z,139.10
2023-05-12T11:22:32.216Z,137.21
2023-05-12T11:23:32.144Z,137.90
2023-05-12T11:24:32.395Z,138.06
2023-05-12T11:25:32.131Z,136.70
2023-05-12T11:26:32.039Z,135.06
2023-05-12T11:27:32.079Z,132.80
2023-05-12T11:28:32.010Z,135.19
2023-05-12T11:29:31.985Z,136.18
2023-05-12T11:30:31.928Z,135.42
2023-05-12T11:31:31.935Z,137.25
2023-05-12T11:32:31.910Z,138.87
2023-05-12T11:33:31.878Z,140.17
2023-05-12T11:34:31.820Z,141.73
2023-05-12T11:35:31.845Z,142.38
2023-05-12T11:37:50.947Z,25.00
2023-05-12T11:38:50.926Z,25.00
2023-05-12T11:39:50.921Z,25.00
2023-05-12T11:40:50.904Z,25.00
2023-05-12T11:41:52.992Z,25.00
2023-05-12T11:42:51.911Z,25.00
2023-05-12T11:43:50.881Z,25.00
2023-05-12T11:44:50.874Z,25.00
2023-05-12T11:45:50.889Z,25.00
2023-05-12T11:46:50.864Z,25.00
2023-05-12T11:47:50.845Z,28.91
2023-05-12T11:48:50.824Z,32.29
2023-05-12T11:49:50.790Z,33.77
2023-05-12T11:50:50.795Z,30.39
2023-05-12T11:51:50.769Z,37.78
2023-05-12T11:52:50.782Z,38.60
2023-05-12T11:53:50.749Z,42.59
2023-05-12T11:54:50.762Z,42.52
2023-05-12T11:55:50.756Z,31.22
2023-05-12T11:56:50.821Z,32.42
2023-05-12T11:57:50.871Z,34.97
2023-05-12T11:58:50.882Z,36.69
2023-05-12T11:59:50.921Z,43.03
2023-05-12T12:00:50.972Z,48.74
2023-05-12T12:01:51.011Z,48.00
2023-05-12T12:02:51.141Z,40.22
2023-05-12T12:03:51.245Z,25.00
2023-05-12T12:04:51.186Z,25.00
2023-05-12T12:05:51.208Z,30.21
2023-05-12T12:06:51.244Z,33.59
2023-05-12T12:07:51.295Z,29.92
2023-05-12T12:08:51.372Z,38.05
2023-05-12T12:09:51.403Z,43.55
2023-05-12T12:10:51.440Z,55.60
2023-05-12T12:11:51.481Z,50.86
2023-05-12T12:12:51.527Z,44.72
2023-05-12T12:13:51.589Z,58.41
2023-05-12T12:14:51.644Z,65.57
2023-05-12T12:15:51.702Z,57.49
2023-05-12T12:16:51.746Z,53.90
2023-05-12T12:17:51.890Z,65.63
2023-05-12T12:18:51.862Z,50.11
2023-05-12T12:19:51.841Z,65.17
2023-05-12T12:20:51.882Z,63.97
2023-05-12T12:21:51.881Z,64.23
2023-05-12T12:22:51.859Z,64.61
2023-05-12T12:23:51.943Z,66.70
2023-05-12T12:24:51.884Z,58.66
2023-05-12T12:25:51.815Z,63.11
2023-05-12T12:26:51.795Z,60.76
2023-05-12T12:27:51.788Z,54.62
2023-05-12T12:28:51.758Z,59.45
2023-05-12T12:29:51.752Z,60.55
2023-05-12T12:30:51.756Z,53.16
2023-05-12T12:31:51.934Z,64.16
2023-05-12T12:32:51.902Z,71.51
2023-05-12T12:33:51.860Z,82.62
2023-05-12T12:34:51.944Z,86.07
2023-05-12T12:35:51.959Z,89.54
2023-05-12T12:36:52.004Z,94.44
2023-05-12T12:37:52.179Z,97.63
2023-05-12T12:38:52.084Z,102.70
2023-05-12T12:39:52.119Z,105.49
2023-05-12T12:40:52.154Z,109.82
2023-05-12T12:41:52.196Z,112.61